createdAt,value
2019-01-14T00:00:23.126Z,8.90
2019-01-14T00:05:26.857Z,7.90
2019-01-14T00:10:30.684Z,8.87
2019-01-14T00:15:34.572Z,8.80
2019-01-14T00:20:38.350Z,9.03
2019-01-14T00:25:42.111Z,7.83
2019-01-14T00:30:47.172Z,9.37
2019-01-14T00:35:50.945Z,7.37
2019-01-14T00:40:54.652Z,7.37
2019-01-14T00:45:58.361Z,8.00
2019-01-14T00:51:02.032Z,7.80
2019-01-14T00:56:05.812Z,8.60
2019-01-14T01:01:09.646Z,8.27
2019-01-14T01:06:13.311Z,13.23
2019-01-14T01:11:17.043Z,7.53
2019-01-14T01:16:21.023Z,8.63
2019-01-14T01:21:24.750Z,6.90
2019-01-14T01:26:28.448Z,7.53
2019-01-14T01:31:32.123Z,6.57
2019-01-14T01:36:36.081Z,7.17
2019-01-14T01:41:39.798Z,7.03
2019-01-14T01:46:43.456Z,6.90
2019-01-14T01:51:47.144Z,9.80
2019-01-14T01:56:51.555Z,7.67
2019-01-14T02:01:55.227Z,6.77
2019-01-14T02:06:59.027Z,5.23
2019-01-14T02:12:02.754Z,6.20
2019-01-14T02:17:06.670Z,6.70
2019-01-14T02:22:10.384Z,6.20
2019-01-14T02:27:14.141Z,8.63
2019-01-14T02:32:17.947Z,6.93
2019-01-14T02:37:21.981Z,7.80
2019-01-14T02:42:25.731Z,5.60
2019-01-14T02:47:29.718Z,6.93
2019-01-14T02:52:39.445Z,6.00
2019-01-14T02:57:38.763Z,6.63
2019-01-14T03:02:42.557Z,6.17
2019-01-14T03:07:46.526Z,6.67
2019-01-14T03:12:50.313Z,8.83
2019-01-14T03:17:54.073Z,6.30
2019-01-14T03:22:57.691Z,6.37
2019-01-14T03:28:01.441Z,7.93
2019-01-14T03:33:05.157Z,8.73
2019-01-14T03:38:08.857Z,6.43
2019-01-14T03:43:12.545Z,7.10
2019-01-14T03:48:16.235Z,9.10
2019-01-14T03:53:19.985Z,6.63
2019-01-14T03:58:23.657Z,6.50
2019-01-14T04:03:27.690Z,8.20
2019-01-14T04:08:31.421Z,5.13
2019-01-14T04:13:35.149Z,5.60
2019-01-14T04:18:38.966Z,5.30
2019-01-14T04:23:42.684Z,5.03
2019-01-14T04:28:46.512Z,4.80
2019-01-14T04:33:50.191Z,5.57
2019-01-14T04:38:54.451Z,5.73
2019-01-14T04:43:58.176Z,4.87
2019-01-14T04:49:01.829Z,6.80
2019-01-14T04:54:05.599Z,4.40
2019-01-14T04:59:09.361Z,6.03
2019-01-14T05:04:13.112Z,4.87
2019-01-14T05:09:16.853Z,4.80
2019-01-14T05:14:20.614Z,6.53
2019-01-14T05:19:24.371Z,5.40
2019-01-14T05:24:28.121Z,6.47
2019-01-14T05:29:31.877Z,4.90
2019-01-14T05:34:35.997Z,8.30
2019-01-14T05:39:39.743Z,10.60
2019-01-14T05:44:43.435Z,9.67
2019-01-14T05:49:47.165Z,12.77
2019-01-14T05:54:50.867Z,14.33
2019-01-14T05:59:54.927Z,13.23
2019-01-14T06:04:58.686Z,20.10
2019-01-14T06:10:02.519Z,20.83
2019-01-14T06:15:06.710Z,16.90
2019-01-14T06:20:12.509Z,19.47
2019-01-14T06:25:16.298Z,17.47
2019-01-14T06:30:22.279Z,15.40
2019-01-14T06:35:26.027Z,17.00
2019-01-14T06:40:29.790Z,15.70
2019-01-14T06:45:33.644Z,13.63
2019-01-14T06:50:37.404Z,14.87
2019-01-14T06:55:41.144Z,16.73
2019-01-14T07:00:44.964Z,13.07
2019-01-14T07:05:48.729Z,11.80
2019-01-14T07:10:53.610Z,14.60
2019-01-14T07:15:57.404Z,11.10
2019-01-14T07:21:01.238Z,10.47
2019-01-14T07:26:04.957Z,9.10
2019-01-14T07:31:08.716Z,9.07
2019-01-14T07:36:12.475Z,9.90
2019-01-14T07:41:16.296Z,8.40
2019-01-14T07:46:20.009Z,11.40
2019-01-14T07:51:23.695Z,10.73
2019-01-14T07:56:27.807Z,11.13
2019-01-14T08:01:31.612Z,8.20
2019-01-14T08:06:35.361Z,9.43
2019-01-14T08:11:39.173Z,10.13
2019-01-14T08:16:43.101Z,10.33
2019-01-14T08:21:46.888Z,9.43
2019-01-14T08:26:50.739Z,9.00
2019-01-14T08:31:54.700Z,8.40
2019-01-14T08:37:00.892Z,8.70
2019-01-14T08:42:04.162Z,9.73
2019-01-14T08:47:08.666Z,7.50
2019-01-14T08:52:12.604Z,9.03
2019-01-14T08:57:16.692Z,14.43
2019-01-14T09:02:20.486Z,9.67
2019-01-14T09:07:24.243Z,8.80
2019-01-14T09:12:28.003Z,8.27
2019-01-14T09:17:31.726Z,7.77
2019-01-14T09:22:35.780Z,7.10
2019-01-14T09:27:39.449Z,8.77
2019-01-14T09:32:43.866Z,7.80
2019-01-14T09:37:47.850Z,14.00
2019-01-14T09:42:52.079Z,6.70
2019-01-14T09:47:55.922Z,10.03
2019-01-14T09:52:59.808Z,9.87
2019-01-14T09:58:03.846Z,7.90
2019-01-14T10:03:07.591Z,8.03
2019-01-14T10:08:11.611Z,9.73
2019-01-14T10:13:15.419Z,8.00
2019-01-14T10:18:19.147Z,8.40
2019-01-14T10:23:23.273Z,7.20
2019-01-14T10:28:27.196Z,7.07
2019-01-14T10:33:31.074Z,8.20
2019-01-14T10:38:34.851Z,7.00
2019-01-14T10:43:38.699Z,7.30
2019-01-14T10:48:42.745Z,11.20
2019-01-14T10:53:46.419Z,6.47
2019-01-14T10:58:50.171Z,5.00
2019-01-14T11:03:54.045Z,5.10
2019-01-14T11:09:05.760Z,12.83
2019-01-14T11:14:03.479Z,6.30
2019-01-14T11:19:07.547Z,7.97
2019-01-14T11:24:11.331Z,5.93
2019-01-14T11:29:15.550Z,6.33
2019-01-14T11:34:19.489Z,4.33
2019-01-14T11:39:23.259Z,4.33
2019-01-14T11:44:27.055Z,6.73
2019-01-14T11:49:30.881Z,6.77
2019-01-14T11:54:34.717Z,4.17
2019-01-14T11:59:38.529Z,5.00
2019-01-14T12:04:42.364Z,5.17
2019-01-14T12:09:46.066Z,4.20
2019-01-14T12:14:50.142Z,6.13
2019-01-14T12:19:54.113Z,4.20
2019-01-14T12:24:57.992Z,5.30
2019-01-14T12:30:01.760Z,4.90
2019-01-14T12:35:05.873Z,4.80
2019-01-14T12:40:10.874Z,6.83
2019-01-14T12:45:14.697Z,4.83
2019-01-14T12:50:18.461Z,4.53
2019-01-14T12:55:22.326Z,4.60
2019-01-14T13:00:27.878Z,5.37
2019-01-14T13:05:31.643Z,6.00
2019-01-14T13:10:35.598Z,5.20
2019-01-14T13:15:39.604Z,5.50
2019-01-14T13:20:43.530Z,5.17
2019-01-14T13:25:47.791Z,11.40
2019-01-14T13:30:51.746Z,10.50
2019-01-14T13:35:55.495Z,9.93
2019-01-14T13:40:59.972Z,10.47
2019-01-14T13:46:03.761Z,9.03
2019-01-14T13:51:07.550Z,9.87
2019-01-14T13:56:11.497Z,8.37
2019-01-14T14:01:16.378Z,5.80
2019-01-14T14:06:20.621Z,15.63
2019-01-14T14:11:24.835Z,6.30
2019-01-14T14:16:30.264Z,3.90
2019-01-14T14:21:34.016Z,5.83
2019-01-14T14:26:39.050Z,4.67
2019-01-14T14:31:42.993Z,5.73
2019-01-14T14:36:46.827Z,3.43
2019-01-14T14:41:50.694Z,4.73
2019-01-14T14:46:54.633Z,2.30
2019-01-14T14:51:58.430Z,5.60
2019-01-14T14:57:02.253Z,3.33
2019-01-14T15:02:06.073Z,3.60
2019-01-14T15:07:10.063Z,5.40
2019-01-14T15:12:13.929Z,3.47
2019-01-14T15:17:17.990Z,7.87
2019-01-14T15:22:21.812Z,6.37
2019-01-14T15:27:29.120Z,5.13
2019-01-14T15:32:32.840Z,4.27
2019-01-14T15:37:36.888Z,9.27
2019-01-14T15:42:40.784Z,12.30
2019-01-14T15:47:44.793Z,5.77
2019-01-14T15:52:48.859Z,4.33
2019-01-14T15:57:52.733Z,2.90
2019-01-14T16:02:56.555Z,3.53
2019-01-14T16:08:00.373Z,5.40
2019-01-14T16:13:04.658Z,6.37
2019-01-14T16:18:08.720Z,3.30
2019-01-14T16:23:12.449Z,6.10
2019-01-14T16:28:16.260Z,6.33
2019-01-14T16:33:19.992Z,8.50
2019-01-14T16:38:23.763Z,6.30
2019-01-14T16:43:27.464Z,3.70
2019-01-14T16:48:31.248Z,6.83
2019-01-14T16:53:35.187Z,6.23
2019-01-14T16:58:39.433Z,3.50
2019-01-14T17:03:43.380Z,3.60
2019-01-14T17:08:47.085Z,4.37
2019-01-14T17:13:50.825Z,3.37
2019-01-14T17:18:54.804Z,7.90
2019-01-14T17:24:17.803Z,4.70
2019-01-14T17:29:21.531Z,5.37
2019-01-14T17:34:25.261Z,4.53
2019-01-14T17:39:29.229Z,5.57
2019-01-14T17:44:33.177Z,7.80
2019-01-14T17:49:37.418Z,8.50
2019-01-14T17:54:41.556Z,10.47
2019-01-14T17:59:45.331Z,7.40
2019-01-14T18:04:50.421Z,7.37
2019-01-14T18:09:54.160Z,6.40
2019-01-14T18:14:57.884Z,8.07
2019-01-14T18:20:01.715Z,7.40
2019-01-14T18:25:06.223Z,8.87
2019-01-14T18:30:13.213Z,7.73
2019-01-14T18:35:18.358Z,6.03
2019-01-14T18:40:22.202Z,5.33
2019-01-14T18:45:25.978Z,8.17
2019-01-14T18:50:29.749Z,6.77
2019-01-14T18:55:33.658Z,8.83
2019-01-14T19:00:38.883Z,10.80
2019-01-14T19:05:42.790Z,4.50
2019-01-14T19:10:46.580Z,6.13
2019-01-14T19:15:50.288Z,5.27
2019-01-14T19:20:54.015Z,6.77
2019-01-14T19:25:57.775Z,9.80
2019-01-14T19:31:01.742Z,6.17
2019-01-14T19:36:06.040Z,7.63
2019-01-14T19:41:09.913Z,9.60
2019-01-14T19:46:13.725Z,5.83
2019-01-14T19:51:17.666Z,5.03
2019-01-14T19:56:22.298Z,6.50
2019-01-14T20:01:26.083Z,7.43
2019-01-14T20:06:29.886Z,5.17
2019-01-14T20:11:33.631Z,5.20
2019-01-14T20:16:37.545Z,6.60
2019-01-14T20:21:41.406Z,6.30
2019-01-14T20:26:45.219Z,6.37
2019-01-14T20:31:49.014Z,6.00
2019-01-14T20:36:53.644Z,7.50
2019-01-14T20:41:57.488Z,10.70
2019-01-14T20:47:01.415Z,7.47
2019-01-14T20:52:05.178Z,7.60
2019-01-14T20:57:09.018Z,6.90
2019-01-14T21:02:12.781Z,5.93
2019-01-14T21:07:16.554Z,6.57
2019-01-14T21:12:20.358Z,5.03
2019-01-14T21:17:24.196Z,9.20
2019-01-14T21:22:28.042Z,5.73
2019-01-14T21:27:32.009Z,4.80
2019-01-14T21:32:35.826Z,6.13
2019-01-14T21:37:39.570Z,7.13
2019-01-14T21:42:43.419Z,9.20
2019-01-14T21:47:47.207Z,7.60
2019-01-14T21:52:51.350Z,5.77
2019-01-14T21:57:55.375Z,6.90
2019-01-14T22:02:59.327Z,8.20
2019-01-14T22:08:03.122Z,9.27
2019-01-14T22:13:07.266Z,9.33
2019-01-14T22:18:11.012Z,7.97
2019-01-14T22:23:14.854Z,8.57
2019-01-14T22:28:18.736Z,9.53
2019-01-14T22:33:22.556Z,8.30
2019-01-14T22:38:26.277Z,9.23
2019-01-14T22:43:30.350Z,9.13
2019-01-14T22:48:34.175Z,9.60
2019-01-14T22:53:37.859Z,11.30
2019-01-14T22:58:41.707Z,11.27
2019-01-14T23:03:48.159Z,8.73
2019-01-14T23:08:51.963Z,10.73
2019-01-14T23:13:55.672Z,9.60
2019-01-14T23:18:59.333Z,7.50
2019-01-14T23:24:03.096Z,9.47
2019-01-14T23:29:06.941Z,8.47
2019-01-14T23:34:10.605Z,10.80
2019-01-14T23:39:14.393Z,8.27
2019-01-14T23:44:18.135Z,10.60
2019-01-14T23:49:21.856Z,8.53
2019-01-14T23:54:25.629Z,8.40
2019-01-14T23:59:29.661Z,9.97
